Terminal Aerodrome Forecast
Issued by NWS

Home | Current Version | Previous Version | Graphics & Text | Print | Product List | Glossary Off
Versions: 1 2 3 4 5 6 7 8 9 10 11 12 13 14 15 16 17 18 19

000
FTUS43 KDDC 221001 AAA
TAFHYS
TAF AMD
KHYS 221001Z 2210/2306 19006KT P6SM SKC WS020/21040KT
     FM221600 20012KT P6SM FEW250
     FM230200 04011KT P6SM BKN200
     FM230300 01011KT P6SM BKN200=

USA.gov is the U.S. government's official web portal to all federal, state and local government web resources and services.